Dobbs Ferry, New York
Current Conditions -  °F | °C
As of 12:56 AM on Sunday 21 Dec 2014 (Local Time) from KHPN Reporting Station
Overcast Overcast  
Wind Chill: 24°   Ceiling: 2000
Heat Index: 30°   Visibility: 10mi
Dew Point: 24°   Wind: 6mph
Humidity: 79%   Direction: 320°NW
Pressure: 30.26"   Gusts: NA
Location:  41.02°N, 73.87°W
Report Text: KHPN 210556Z 32005KT 10SM OVC020 M01/M04 A3026 RMK AO2 SLP254 T10111044 11011 21017 55005
Loading
Personal Weather Stations






























Interactive Weather Map New forecast layout! Learn more

10-Day Weather Forecast

Advertisements
Track Severe Weather on mobile